Kezdőlap
METAR-TAF:

METAR-TAF

Repülőterek :

Fillmore County Airport

Preston, Minnesota, Amerikai Egyesült Államok

földrajzi szélesség: 43-40-36N, földrajzi hosszúság: 092-10-47W, magasság: 389 m

Jelenlegi meteorológiai megfigyelések

A jelentés 16 perccel ezelõtt készült, 06:35 UTC
Nyugat-délnyugati szél 7 kt
Hőmérséklet 19°C
Páratartalom 100%
Légköri nyomás 1009 hPa
Látótávolság: 8.0 km
enyhe esõ, Párásság

METAR: KFKA 210635Z AUTO 24007KT 5SM -RA BR 19/19 A2981 RMK AO2 LTG DSNT S

Idő: 01:51 (06:51 UTC)


TAF: hiányzik

Meteorológiai megfigyelések és előrejelzések több, mint 4000 repülőtéren (METAR és TAF jelentéseket).

A térképen piros és sárga pontok jelzik az elérhető meteorológiai állomásokat.

Mozgassa az egeret a pont fölött, hogy megjelenjen az állomás neve.

Azután kattintson az időjárási megfigyelések és előrejelzések megtekintéséhez.

A térkép megváltoztatása: kattintson a fekete keresztel jelölt zöld gombra ráközelítéshez, a vonallal jelölt zöld gombra távolításhoz, vagy a zöld nyilakra a szomszédos térképek eléréséhez.


METAR-TAF: